createdAt,value
2023-01-29T00:00:30.287Z,103157.06
2023-01-29T00:08:49.363Z,103145.00
2023-01-29T00:11:27.605Z,103145.00
2023-01-29T00:14:55.258Z,103133.34
2023-01-29T00:36:23.465Z,103108.56
2023-01-29T00:40:47.011Z,103112.31
2023-01-29T06:07:05.581Z,102967.09
2023-01-29T07:18:14.537Z,102932.13
2023-01-29T07:50:30.474Z,102924.81
2023-01-29T07:56:50.949Z,102917.31
2023-01-29T08:04:33.370Z,102901.91
2023-01-29T08:08:05.614Z,102909.81
2023-01-29T08:11:01.666Z,102897.09
2023-01-29T08:13:28.388Z,102894.16
2023-01-29T08:20:08.318Z,102888.91
2023-01-29T08:23:45.649Z,102892.84
2023-01-29T08:26:43.569Z,102905.94
2023-01-29T08:29:37.082Z,102900.31
2023-01-29T08:32:05.240Z,102900.69
2023-01-29T08:47:25.727Z,102872.28
2023-01-29T09:37:06.736Z,102868.22
2023-01-29T10:08:47.687Z,102868.56
2023-01-29T10:11:29.739Z,102876.25
2023-01-29T10:14:10.739Z,102864.38
2023-01-29T10:25:27.898Z,102845.78
2023-01-29T10:30:33.818Z,102839.53
2023-01-29T10:43:00.624Z,102820.53
2023-01-29T10:56:05.844Z,102803.03
2023-01-29T11:01:28.357Z,102779.22
2023-01-29T11:04:20.495Z,102777.72
2023-01-29T11:06:50.024Z,102775.38
2023-01-29T11:20:29.618Z,102766.56
2023-01-29T11:23:02.743Z,102759.47
2023-01-29T11:26:19.645Z,102762.78
2023-01-29T11:28:59.014Z,102754.66
2023-01-29T11:31:45.888Z,102756.31
2023-01-29T11:34:23.079Z,102756.31
2023-01-29T11:37:41.678Z,102753.59
2023-01-29T11:40:54.728Z,102740.25
2023-01-29T11:43:39.626Z,102735.22
2023-01-29T11:46:13.874Z,102740.63
2023-01-29T11:49:14.374Z,102731.91
2023-01-29T11:51:52.678Z,102734.38
2023-01-29T11:54:41.510Z,102730.59
2023-01-29T12:07:19.890Z,102711.63
2023-01-29T12:41:56.033Z,102645.34
2023-01-29T12:44:51.015Z,102649.94
2023-01-29T12:48:09.364Z,102627.19
2023-01-29T12:56:20.608Z,102621.53
2023-01-29T12:59:23.152Z,102601.72
2023-01-29T13:02:48.206Z,102594.41
2023-01-29T13:05:44.603Z,102578.72
2023-01-29T13:08:58.535Z,102574.34
2023-01-29T13:15:33.581Z,102551.81
2023-01-29T13:22:30.517Z,102535.91
2023-01-29T13:25:23.457Z,102524.59
2023-01-29T13:31:44.816Z,102501.44
2023-01-29T13:35:04.013Z,102503.22
2023-01-29T13:37:37.180Z,102494.59
2023-01-29T13:41:07.449Z,102502.00
2023-01-29T13:44:02.946Z,102502.34
2023-01-29T13:54:01.889Z,102496.19
2023-01-29T13:54:05.768Z,102494.78
2023-01-29T13:56:40.603Z,102484.28
2023-01-29T13:59:47.848Z,102484.03
2023-01-29T14:02:39.428Z,102491.09
2023-01-29T14:05:31.197Z,102483.31
2023-01-29T14:08:45.206Z,102487.44
2023-01-29T14:12:22.570Z,102489.06
2023-01-29T14:15:59.469Z,102476.56
2023-01-29T14:18:28.421Z,102471.16
2023-01-29T14:21:07.162Z,102475.03
2023-01-29T14:23:51.450Z,102472.91
2023-01-29T14:26:25.958Z,102470.19
2023-01-29T14:29:25.545Z,102477.25
2023-01-29T14:32:09.284Z,102474.53
2023-01-29T14:34:47.772Z,102473.47
2023-01-29T14:37:18.672Z,102461.63
2023-01-29T14:39:48.331Z,102459.19
2023-01-29T14:42:24.521Z,102450.75
2023-01-29T14:44:53.800Z,102454.56
2023-01-29T14:47:35.160Z,102447.25
2023-01-29T14:50:23.362Z,102451.84
2023-01-29T14:52:53.934Z,102443.72
2023-01-29T14:55:31.117Z,102447.50
2023-01-29T14:57:58.900Z,102447.50
2023-01-29T15:00:31.694Z,102439.00
2023-01-29T15:03:01.981Z,102432.75
2023-01-29T15:05:37.296Z,102424.63
2023-01-29T15:08:18.290Z,102426.25
2023-01-29T15:11:14.272Z,102420.59
2023-01-29T15:14:08.619Z,102412.75
2023-01-29T15:16:57.617Z,102404.88
2023-01-29T15:19:24.186Z,102415.47
2023-01-29T15:22:05.570Z,102408.97
2023-01-29T15:24:32.269Z,102416.56
2023-01-29T15:26:59.190Z,102409.50
2023-01-29T15:29:34.360Z,102404.06
2023-01-29T15:32:03.207Z,102418.69
2023-01-29T15:34:29.944Z,102415.41
2023-01-29T15:37:00.558Z,102405.38
2023-01-29T15:39:28.578Z,102395.81
2023-01-29T15:43:03.415Z,102384.38
2023-01-29T15:45:53.675Z,102391.69
2023-01-29T15:56:15.951Z,102375.06
2023-01-29T15:59:21.171Z,102380.50
2023-01-29T16:01:47.865Z,102383.22
2023-01-29T16:04:24.215Z,102378.03
2023-01-29T16:06:53.819Z,102389.13
2023-01-29T16:09:23.687Z,102393.97
2023-01-29T16:11:52.071Z,102388.78
2023-01-29T16:14:23.015Z,102395.28
2023-01-29T16:16:49.719Z,102390.09
2023-01-29T16:19:27.644Z,102390.81
2023-01-29T16:22:03.336Z,102385.88
2023-01-29T16:24:32.487Z,102392.63
2023-01-29T16:27:01.965Z,102398.56
2023-01-29T16:29:33.443Z,102402.59
2023-01-29T16:32:02.487Z,102392.78
2023-01-29T16:34:38.372Z,102394.94
2023-01-29T16:37:15.982Z,102394.09
2023-01-29T16:39:47.013Z,102381.00
2023-01-29T16:42:20.246Z,102373.34
2023-01-29T16:45:24.744Z,102363.56
2023-01-29T16:48:01.961Z,102361.34
2023-01-29T16:50:46.197Z,102366.78
2023-01-29T16:53:21.396Z,102359.13
2023-01-29T16:55:49.784Z,102357.47
2023-01-29T16:58:36.544Z,102360.41
2023-01-29T17:01:07.948Z,102361.72
2023-01-29T17:03:36.404Z,102353.00
2023-01-29T17:06:11.566Z,102353.47
2023-01-29T17:08:43.893Z,102355.66
2023-01-29T17:11:13.977Z,102354.25
2023-01-29T17:13:43.956Z,102354.00
2023-01-29T17:16:29.199Z,102353.41
2023-01-29T17:18:56.142Z,102342.22
2023-01-29T17:21:22.788Z,102346.81
2023-01-29T17:23:49.956Z,102335.97
2023-01-29T17:26:16.932Z,102337.88
2023-01-29T17:28:44.591Z,102337.03
2023-01-29T17:31:11.126Z,102341.63
2023-01-29T17:33:49.093Z,102335.38
2023-01-29T17:36:37.942Z,102338.44
2023-01-29T17:39:15.132Z,102337.88
2023-01-29T17:41:50.399Z,102340.56
2023-01-29T17:44:17.747Z,102331.84
2023-01-29T17:46:45.133Z,102324.53
2023-01-29T17:49:24.766Z,102308.28
2023-01-29T17:51:57.381Z,102302.63
2023-01-29T17:54:25.524Z,102298.50
2023-01-29T17:56:53.054Z,102299.31
2023-01-29T17:59:25.297Z,102303.91
2023-01-29T18:01:56.108Z,102303.91
2023-01-29T18:04:23.275Z,102278.94
2023-01-29T18:06:51.967Z,102287.66
2023-01-29T18:09:20.642Z,102285.75
2023-01-29T18:11:50.803Z,102280.09
2023-01-29T18:14:23.473Z,102274.69
2023-01-29T18:16:50.147Z,102275.25
2023-01-29T18:19:31.723Z,102277.97
2023-01-29T18:21:58.418Z,102263.59
2023-01-29T18:24:26.504Z,102260.63
2023-01-29T18:26:53.129Z,102269.59
2023-01-29T18:29:19.747Z,102266.88
2023-01-29T18:31:49.134Z,102255.78
2023-01-29T18:34:16.190Z,102252.00
2023-01-29T18:36:46.971Z,102240.34
2023-01-29T18:39:15.649Z,102236.56
2023-01-29T18:41:42.233Z,102228.19
2023-01-29T18:44:10.511Z,102219.22
2023-01-29T18:46:54.530Z,102213.56
2023-01-29T18:49:21.254Z,102205.66
2023-01-29T18:51:48.029Z,102198.34
2023-01-29T18:54:14.769Z,102196.47
2023-01-29T18:57:13.194Z,102196.47
2023-01-29T18:59:27.906Z,102194.00
2023-01-29T19:01:54.587Z,102189.41
2023-01-29T19:04:21.365Z,102184.78
2023-01-29T19:06:48.012Z,102179.38
2023-01-29T19:09:14.945Z,102170.16
2023-01-29T19:11:41.541Z,102169.34
2023-01-29T19:14:08.005Z,102160.16
2023-01-29T19:16:34.597Z,102157.69
2023-01-29T19:19:39.331Z,102146.81
2023-01-29T19:23:08.579Z,102135.97
2023-01-29T19:25:29.019Z,102147.91
2023-01-29T19:27:55.609Z,102164.75
2023-01-29T19:30:25.565Z,102157.44
2023-01-29T19:32:53.230Z,102145.75
2023-01-29T19:35:20.116Z,102145.47
2023-01-29T19:37:46.991Z,102135.47
2023-01-29T19:40:13.676Z,102147.94
2023-01-29T19:42:41.038Z,102153.38
2023-01-29T19:45:08.697Z,102137.09
2023-01-29T19:47:40.534Z,102133.31
2023-01-29T19:50:08.642Z,102139.56
2023-01-29T19:52:50.289Z,102136.84
2023-01-29T19:55:18.681Z,102118.69
2023-01-29T19:57:45.371Z,102115.97
2023-01-29T20:00:12.627Z,102112.19
2023-01-29T20:02:39.216Z,102124.69
2023-01-29T20:05:07.995Z,102130.38
2023-01-29T20:07:38.779Z,102126.59
2023-01-29T20:10:07.309Z,102118.44
2023-01-29T20:12:34.680Z,102115.72
2023-01-29T20:15:08.512Z,102111.13
2023-01-29T20:17:35.333Z,102109.00
2023-01-29T20:20:02.637Z,102117.13
2023-01-29T20:22:29.688Z,102122.56
2023-01-29T20:24:57.655Z,102113.34
2023-01-29T20:27:36.685Z,102116.31
2023-01-29T20:30:28.473Z,102118.78
2023-01-29T20:32:54.901Z,102107.94
2023-01-29T20:38:34.782Z,102084.34
2023-01-29T20:41:19.693Z,102097.66
2023-01-29T20:43:47.515Z,102119.34
2023-01-29T20:46:14.748Z,102110.16
2023-01-29T20:48:42.081Z,102099.28
2023-01-29T20:51:15.424Z,102100.94
2023-01-29T20:53:45.144Z,102104.22
2023-01-29T20:56:12.649Z,102111.28
2023-01-29T20:58:40.888Z,102115.66
2023-01-29T21:01:10.727Z,102101.03
2023-01-29T21:03:39.637Z,102096.16
2023-01-29T21:06:07.184Z,102093.19
2023-01-29T21:08:35.366Z,102096.50
2023-01-29T21:11:02.874Z,102086.22
2023-01-29T21:13:29.516Z,102102.25
2023-01-29T21:15:56.184Z,102095.16
2023-01-29T21:18:22.659Z,102098.47
2023-01-29T21:20:50.282Z,102102.81
2023-01-29T21:23:17.011Z,102090.88
2023-01-29T21:25:49.176Z,102101.22
2023-01-29T21:28:26.160Z,102101.78
2023-01-29T21:31:16.491Z,102106.72
2023-01-29T21:33:57.478Z,102094.88
2023-01-29T21:36:39.997Z,102082.94
2023-01-29T21:39:37.188Z,102087.88
2023-01-29T21:51:05.776Z,102041.84
2023-01-29T22:04:06.488Z,101981.66
2023-01-29T22:07:20.088Z,101970.81
2023-01-29T22:10:12.786Z,101965.13
2023-01-29T22:12:59.325Z,101955.06
2023-01-29T22:16:17.364Z,101961.06
2023-01-29T22:19:14.156Z,101989.88
2023-01-29T22:21:59.172Z,101967.31
2023-01-29T22:28:01.187Z,101949.69
2023-01-29T22:30:53.405Z,101964.91
2023-01-29T22:33:44.581Z,101957.91
2023-01-29T22:39:59.694Z,101957.38
2023-01-29T22:42:28.795Z,101950.63
2023-01-29T22:45:13.601Z,101932.19
2023-01-29T22:47:58.666Z,101934.63
2023-01-29T22:50:43.092Z,101926.81
2023-01-29T22:57:24.374Z,101903.75
2023-01-29T23:00:18.888Z,101904.56
2023-01-29T23:03:12.393Z,101919.53
2023-01-29T23:06:00.248Z,101921.72
2023-01-29T23:09:16.586Z,101927.72
2023-01-29T23:11:41.929Z,101905.47
2023-01-29T23:15:15.314Z,101916.91
2023-01-29T23:17:02.279Z,101913.66
2023-01-29T23:22:08.782Z,101885.16
2023-01-29T23:25:02.804Z,101897.16
2023-01-29T23:27:51.343Z,101901.25
2023-01-29T23:30:45.277Z,101882.53
2023-01-29T23:33:35.905Z,101865.41
2023-01-29T23:36:28.579Z,101858.34
2023-01-29T23:39:07.224Z,101855.66
2023-01-29T23:41:56.730Z,101842.09
2023-01-29T23:44:44.015Z,101842.66
2023-01-29T23:47:38.319Z,101837.75
2023-01-29T23:50:28.571Z,101848.94
2023-01-29T23:53:15.041Z,101851.66
2023-01-29T23:59:34.705Z,101839.69
